Lord Nelson — GHJV — position and weather

sailwx.info

Track history (hours):
 
Tides and Currents Weather Stations Pressure Air Temp Water Temp Dewpoint Dewpoint Depression Visibility Wind Speed Wind Dir Waves Ship Positions

Lord Nelson (United Kingdom)

Ship's website: http://www.jst.org.uk/

Last reported at 2016-Feb-11 17:24 UTC. Time now 2016-Feb-13 13:00 UTC.
Position N 28°28' W 016°15'.

Length 54.7 m; beam 9 m; draft 4.1 m.

Type: Sailing vessel. MMSI: 232003690.

Date/timePositionNaut miles runAvg speedWind from/ knotsBaromVisibWave heightAir tempDewpointWater temp
2016-Feb-11 17:24N 28°28' W 016°15'0 0.0
2016-Feb-11 16:17N 28°28' W 016°15'5 4.5
2016-Feb-11 15:13N 28°23' W 016°14'4 4.2
2016-Feb-11 14:14N 28°26' W 016°11'5 6.6
2016-Feb-11 13:32N 28°29' W 016°07'7 6.9
2016-Feb-11 12:34N 28°34' W 016°01'6 6.2
2016-Feb-11 11:33N 28°39' W 015°57'5 4.7
2016-Feb-11 10:33N 28°43' W 015°55'4 3.9
2016-Feb-11 09:33N 28°47' W 015°55'6 4.3
2016-Feb-11 08:05N 28°53' W 015°56'3 5.1
2016-Feb-11 07:31N 28°55' W 015°58'5 5.1
2016-Feb-11 06:33N 28°58' W 016°03'4 7.9
2016-Feb-11 06:00N 28°54' W 016°06'716.7 010 / 101028.210.8 0.518.612.6
2016-Feb-11 05:33N 29°00' W 016°10'7 6.9
2016-Feb-11 04:29N 29°03' W 016°18'6 4.3
2016-Feb-11 03:00N 29°00' W 016°24'1012.1 010 / 131028.927.0 18.712.7
2016-Feb-11 02:08N 29°03' W 016°35'4 6.5
2016-Feb-11 01:28N 29°03' W 016°40'7 6.3
2016-Feb-11 00:21N 29°02' W 016°48'69 2.2
2016-Feb-09 17:00N 28°24' W 017°54'17 0.5 020 / 61032.110.8 0.523.417.8
2016-Feb-08 06:00N 28°30' W 017°36'20 0.5 030 / 131030.710.8 0.519.415.2
2016-Feb-06 11:00N 28°18' W 017°18'22 4.4 050 / 121027.2 20.214.4
2016-Feb-06 06:00N 28°24' W 016°54'12 4.0 070 / 101024.610.8 0.518.813.8
2016-Feb-06 03:00N 28°30' W 016°42'24 1.7 060 / 81024.610.8 18.613.9
2016-Feb-05 12:32N 28°28' W 016°15'0 0.0
2016-Feb-05 11:30N 28°28' W 016°15'0 0.0
2016-Feb-04 02:08N 28°28' W 016°15'0 0.0
2016-Feb-04 01:32N 28°28' W 016°15'0 0.0
2016-Feb-04 00:33N 28°28' W 016°15'0 0.0
2016-Feb-03 23:19N 28°28' W 016°15'0 0.0
2016-Feb-03 22:31N 28°28' W 016°15'0 0.0
2016-Feb-03 18:22N 28°28' W 016°15'0 0.0
2016-Feb-03 17:20N 28°28' W 016°15'0 0.0
2016-Feb-03 16:31N 28°28' W 016°15'0 0.0
2016-Feb-03 15:32N 28°28' W 016°15'0 0.0
2016-Feb-03 02:09N 28°28' W 016°15'0 0.0
2016-Feb-03 01:19N 28°28' W 016°15'0 0.0
2016-Feb-03 00:31N 28°28' W 016°15'0 0.0
2016-Feb-02 23:05N 28°28' W 016°15'0 0.0
2016-Feb-02 22:29N 28°28' W 016°15'0 0.0
2016-Feb-02 21:30N 28°28' W 016°15'0 0.0
2016-Feb-02 20:21N 28°28' W 016°15'0 0.0
2016-Feb-02 19:33N 28°28' W 016°15'0 0.0
2016-Feb-02 18:25N 28°28' W 016°15'0 0.0
2016-Feb-02 16:21N 28°28' W 016°15'0 0.0
2016-Feb-02 15:33N 28°28' W 016°15'3 2.9
2016-Feb-02 14:31N 28°27' W 016°11'3 2.9
2016-Feb-02 13:31N 28°29' W 016°09'7 7.2
2016-Feb-02 12:33N 28°35' W 016°04'6 6.0
2016-Feb-02 11:34N 28°39' W 016°09'7 6.4
2016-Feb-02 10:29N 28°40' W 016°17'  
Track history (hours):
 
Tides and Currents Weather Stations Pressure Air Temp Water Temp Dewpoint Dewpoint Depression Visibility Wind Speed Wind Dir Waves Ship Positions

Lord Nelson (United Kingdom)

Ship's website: http://www.jst.org.uk/

Last reported at 2016-Feb-11 17:24 UTC. Time now 2016-Feb-13 13:00 UTC.
Position N 28°28' W 016°15'.

Length 54.7 m; beam 9 m; draft 4.1 m.

Type: Sailing vessel. MMSI: 232003690.

Date/timePositionNaut miles runAvg speedWind from/ knotsBaromVisibWave heightAir tempDewpointWater temp
2016-Feb-11 17:24N 28°28' W 016°15'0 0.0
2016-Feb-11 16:17N 28°28' W 016°15'5 4.5
2016-Feb-11 15:13N 28°23' W 016°14'4 4.2
2016-Feb-11 14:14N 28°26' W 016°11'5 6.6
2016-Feb-11 13:32N 28°29' W 016°07'7 6.9
2016-Feb-11 12:34N 28°34' W 016°01'6 6.2
2016-Feb-11 11:33N 28°39' W 015°57'5 4.7
2016-Feb-11 10:33N 28°43' W 015°55'4 3.9
2016-Feb-11 09:33N 28°47' W 015°55'6 4.3
2016-Feb-11 08:05N 28°53' W 015°56'3 5.1
2016-Feb-11 07:31N 28°55' W 015°58'5 5.1
2016-Feb-11 06:33N 28°58' W 016°03'4 7.9
2016-Feb-11 06:00N 28°54' W 016°06'716.7 010 / 101028.210.8 0.518.612.6
2016-Feb-11 05:33N 29°00' W 016°10'7 6.9
2016-Feb-11 04:29N 29°03' W 016°18'6 4.3
2016-Feb-11 03:00N 29°00' W 016°24'1012.1 010 / 131028.927.0 18.712.7
2016-Feb-11 02:08N 29°03' W 016°35'4 6.5
2016-Feb-11 01:28N 29°03' W 016°40'7 6.3
2016-Feb-11 00:21N 29°02' W 016°48'69 2.2
2016-Feb-09 17:00N 28°24' W 017°54'17 0.5 020 / 61032.110.8 0.523.417.8
2016-Feb-08 06:00N 28°30' W 017°36'20 0.5 030 / 131030.710.8 0.519.415.2
2016-Feb-06 11:00N 28°18' W 017°18'22 4.4 050 / 121027.2 20.214.4
2016-Feb-06 06:00N 28°24' W 016°54'12 4.0 070 / 101024.610.8 0.518.813.8
2016-Feb-06 03:00N 28°30' W 016°42'24 1.7 060 / 81024.610.8 18.613.9
2016-Feb-05 12:32N 28°28' W 016°15'0 0.0
2016-Feb-05 11:30N 28°28' W 016°15'0 0.0
2016-Feb-04 02:08N 28°28' W 016°15'0 0.0
2016-Feb-04 01:32N 28°28' W 016°15'0 0.0
2016-Feb-04 00:33N 28°28' W 016°15'0 0.0
2016-Feb-03 23:19N 28°28' W 016°15'0 0.0
2016-Feb-03 22:31N 28°28' W 016°15'0 0.0
2016-Feb-03 18:22N 28°28' W 016°15'0 0.0
2016-Feb-03 17:20N 28°28' W 016°15'0 0.0
2016-Feb-03 16:31N 28°28' W 016°15'0 0.0
2016-Feb-03 15:32N 28°28' W 016°15'0 0.0
2016-Feb-03 02:09N 28°28' W 016°15'0 0.0
2016-Feb-03 01:19N 28°28' W 016°15'0 0.0
2016-Feb-03 00:31N 28°28' W 016°15'0 0.0
2016-Feb-02 23:05N 28°28' W 016°15'0 0.0
2016-Feb-02 22:29N 28°28' W 016°15'0 0.0
2016-Feb-02 21:30N 28°28' W 016°15'0 0.0
2016-Feb-02 20:21N 28°28' W 016°15'0 0.0
2016-Feb-02 19:33N 28°28' W 016°15'0 0.0
2016-Feb-02 18:25N 28°28' W 016°15'0 0.0
2016-Feb-02 16:21N 28°28' W 016°15'0 0.0
2016-Feb-02 15:33N 28°28' W 016°15'3 2.9
2016-Feb-02 14:31N 28°27' W 016°11'3 2.9
2016-Feb-02 13:31N 28°29' W 016°09'7 7.2
2016-Feb-02 12:33N 28°35' W 016°04'6 6.0
2016-Feb-02 11:34N 28°39' W 016°09'7 6.4
2016-Feb-02 10:29N 28°40' W 016°17'  

Dump ship's entire track history